Time;durP1;ratioP1;P1;durP2;ratioP2;P2;SDS_P1;SDS_P2;PMS_P1;PMS_P2;Temp;Humidity;BMP_temperature;BMP_pressure;BME280_temperature;BME280_humidity;BME280_pressure;Samples;Min_cycle;Max_cycle;Signal;HPM_P1;HPM_P2
2022/07/13 00:05:09;;;;;;;;;;;;;;;;;;;;;
2022/07/13 00:08:30;;;;;;;;;;;;;;;;;;;;;
2022/07/13 00:21:51;;;;;;;;;;;;;;;;;;;;;
2022/07/13 04:46:54;;;;;;;;;5.00;5.00;;;;;26.74;33.40;101743.44;6201317;22;45452;-79
2022/07/13 04:54:22;;;;;;;;;;;;;;;;;;;;;
2022/07/13 05:07:08;;;;;;;;;17.75;13.00;;;;;26.89;34.36;101737.16;6209580;22;45459;-81
2022/07/13 05:09:49;;;;;;;;;14.50;12.00;;;;;26.94;34.22;101736.88;6281446;22;45355;-77
2022/07/13 05:12:29;;;;;;;;;8.00;8.00;;;;;26.95;34.28;101739.50;6309898;22;45195;-79
2022/07/13 05:15:00;;;;;;;;;11.00;10.25;;;;;26.96;34.96;101737.69;6309746;22;45405;-79
2022/07/13 05:17:35;;;;;;;;;10.75;9.00;;;;;27.02;35.06;101730.09;6309947;22;45221;-79
2022/07/13 05:20:09;;;;;;;;;9.50;8.75;;;;;27.08;34.62;101739.69;6281842;22;45336;-79
2022/07/13 05:22:42;;;;;;;;;10.50;10.50;;;;;27.10;34.11;101734.19;6310061;22;45349;-79
2022/07/13 05:25:11;;;;;;;;;11.00;9.00;;;;;27.12;34.29;101740.38;6282002;22;45177;-80
2022/07/13 05:27:50;;;;;;;;;9.25;9.25;;;;;27.10;34.55;101734.19;6281485;22;45315;-80
2022/07/13 05:31:03;;;;;;;;;;;;;;;;;;;;;
2022/07/13 05:37:47;;;;;;;;;9.00;8.50;;;;;27.19;33.29;101748.09;6229964;22;45443;-82
2022/07/13 05:40:46;;;;;;;;;8.50;7.50;;;;;27.26;33.46;101745.88;6307686;22;45413;-82
2022/07/13 05:43:49;;;;;;;;;4.25;4.25;;;;;27.34;32.46;101753.56;6309936;22;45380;-78
2022/07/13 05:46:51;;;;;;;;;7.25;6.00;;;;;27.43;32.43;101763.84;6281730;22;47532;-84
2022/07/13 05:49:48;;;;;;;;;;;;;;;;;;;;;
2022/07/13 06:00:02;;;;;;;;;;;;;;;;;;;;;
2022/07/13 06:02:58;;;;;;;;;4.00;3.00;;;;;27.66;29.58;101767.88;6214029;22;72873;-80
2022/07/13 06:06:33;;;;;;;;;;;;;;;;;;;;;
2022/07/13 06:08:53;;;;;;;;;4.00;3.00;;;;;27.67;28.83;101764.25;6286562;22;45216;-80
2022/07/13 06:11:43;;;;;;;;;;;;;;;;;;;;;
2022/07/13 06:14:28;;;;;;;;;5.00;3.25;;;;;27.75;28.45;101777.28;6307622;22;72748;-78
2022/07/13 06:17:14;;;;;;;;;4.67;4.67;;;;;27.77;28.36;101759.13;6279905;22;45346;-79
2022/07/13 06:19:53;;;;;;;;;4.00;4.00;;;;;27.82;28.78;101763.34;6281183;22;45242;-79
2022/07/13 06:22:26;;;;;;;;;6.33;5.33;;;;;27.91;28.68;101764.63;6309206;22;45325;-78
2022/07/13 06:24:59;;;;;;;;;5.00;5.00;;;;;27.99;28.84;101772.28;6309611;22;45406;-77
2022/07/13 06:27:40;;;;;;;;;5.33;4.00;;;;;28.02;28.14;101764.84;6307001;22;45175;-78
2022/07/13 06:30:19;;;;;;;;;6.75;5.75;;;;;28.11;28.05;101766.97;6308875;22;45416;-79
2022/07/13 06:36:02;;;;;;;;;8.00;7.00;;;;;28.19;28.03;101766.50;6291362;22;45430;-75
2022/07/13 06:38:35;;;;;;;;;7.25;5.75;;;;;28.24;28.43;101764.41;6281205;22;45197;-79
2022/07/13 06:41:19;;;;;;;;;9.00;5.00;;;;;28.28;28.79;101762.34;6281159;22;45116;-79
2022/07/13 06:44:31;;;;;;;;;4.75;4.00;;;;;28.31;28.47;101760.34;6308940;22;45236;-79
2022/07/13 06:47:03;;;;;;;;;6.75;6.50;;;;;28.37;28.76;101762.66;6307976;22;45339;-79
2022/07/13 06:49:36;;;;;;;;;6.25;6.00;;;;;28.40;29.04;101761.59;6308912;22;45306;-79
2022/07/13 06:52:12;;;;;;;;;6.75;4.50;;;;;28.45;28.69;101761.34;6308678;22;45373;-82
2022/07/13 06:54:46;;;;;;;;;9.00;7.75;;;;;28.52;29.05;101760.88;6279541;22;45431;-81
2022/07/13 06:57:42;;;;;;;;;6.75;6.75;;;;;28.56;28.86;101766.97;6306415;22;45445;-82
2022/07/13 07:00:40;;;;;;;;;6.25;5.25;;;;;28.58;28.57;101771.31;6281128;22;45456;-81
2022/07/13 07:03:06;;;;;;;;;6.00;6.00;;;;;28.57;28.88;101766.88;6308407;22;45409;-77
2022/07/13 07:05:36;;;;;;;;;5.75;5.75;;;;;28.59;29.24;101773.06;6308547;22;46073;-77
2022/07/13 07:08:09;;;;;;;;;3.67;3.67;;;;;28.62;28.99;101771.13;6308335;22;45327;-77
2022/07/13 07:10:51;;;;;;;;;4.50;4.50;;;;;28.62;28.46;101774.69;6280573;22;45193;-78
2022/07/13 07:13:21;;;;;;;;;4.25;4.00;;;;;28.62;28.18;101769.28;6280747;22;45200;-78
2022/07/13 07:15:52;;;;;;;;;6.00;6.00;;;;;28.65;28.45;101773.63;6308189;22;45903;-78
2022/07/13 07:18:28;;;;;;;;;7.25;5.50;;;;;28.67;28.66;101769.84;6308258;22;45199;-82
2022/07/13 07:21:03;;;;;;;;;6.50;6.00;;;;;28.69;28.46;101777.91;6280511;22;45268;-82
2022/07/13 07:23:50;;;;;;;;;5.75;5.00;;;;;28.69;28.71;101773.34;6308130;22;45324;-81
2022/07/13 07:26:32;;;;;;;;;7.25;5.25;;;;;28.68;29.35;101779.75;6308524;22;45271;-80
2022/07/13 07:29:04;;;;;;;;;5.50;5.50;;;;;28.66;29.73;101787.09;6307841;22;45230;-79
2022/07/13 07:31:32;;;;;;;;;9.50;7.25;;;;;28.63;29.31;101779.16;6307736;22;45334;-79
2022/07/13 07:34:02;;;;;;;;;7.50;4.75;;;;;28.59;29.42;101775.75;6308764;22;45291;-79
2022/07/13 07:36:29;;;;;;;;;6.25;5.00;;;;;28.61;29.44;101772.97;6309810;22;46542;-79
2022/07/13 07:39:03;;;;;;;;;8.75;6.00;;;;;28.62;28.92;101777.41;6309700;22;45308;-80
2022/07/13 07:41:41;;;;;;;;;3.75;3.25;;;;;28.69;28.88;101777.91;6281050;22;45280;-80
2022/07/13 07:44:14;;;;;;;;;5.67;4.67;;;;;28.76;28.64;101777.41;6281247;22;45251;-80
2022/07/13 07:46:42;;;;;;;;;6.00;6.00;;;;;28.89;28.53;101782.03;6309720;22;45232;-80
2022/07/13 07:49:12;;;;;;;;;5.00;5.00;;;;;28.96;28.10;101781.53;6309035;22;45219;-81
2022/07/13 07:51:43;;;;;;;;;4.00;4.00;;;;;29.03;28.28;101780.19;6281461;22;45390;-81
2022/07/13 07:54:16;;;;;;;;;7.25;5.25;;;;;29.05;27.91;101777.38;6307626;22;45378;-80
2022/07/13 07:56:49;;;;;;;;;10.00;7.75;;;;;29.04;27.96;101772.94;6281442;22;47205;-81
2022/07/13 07:59:22;;;;;;;;;5.00;4.75;;;;;29.08;27.97;101774.47;6309884;22;45357;-79
2022/07/13 08:01:59;;;;;;;;;4.50;3.50;;;;;29.08;27.93;101771.75;6309991;22;45224;-78
2022/07/13 08:04:34;;;;;;;;;3.25;3.25;;;;;29.12;28.03;101781.44;6309847;22;45308;-79
2022/07/13 08:07:00;;;;;;;;;5.25;5.25;;;;;29.10;27.87;101769.81;6307383;22;47152;-79
2022/07/13 08:09:30;;;;;;;;;4.25;4.25;;;;;29.11;27.90;101779.72;6310036;22;45291;-79
2022/07/13 08:12:03;;;;;;;;;6.00;3.00;;;;;29.12;28.37;101772.44;6309533;22;45183;-79
2022/07/13 08:14:36;;;;;;;;;4.00;4.00;;;;;29.13;27.98;101772.34;6309956;22;45206;-79
2022/07/13 08:17:17;;;;;;;;;3.25;3.25;;;;;29.11;28.41;101770.69;6309661;22;45373;-79
2022/07/13 08:19:57;;;;;;;;;4.00;3.75;;;;;29.12;27.64;101775.16;6309612;22;45370;-80
2022/07/13 08:22:35;;;;;;;;;6.50;3.75;;;;;29.15;27.99;101767.69;6309773;22;45200;-80
2022/07/13 08:25:05;;;;;;;;;5.25;4.00;;;;;29.22;28.28;101773.59;6309644;22;45180;-79
2022/07/13 08:27:41;;;;;;;;;5.75;5.00;;;;;29.25;28.36;101767.97;6309710;22;46190;-80
2022/07/13 08:31:05;;;;;;;;;;;;;;;;;;;;;
2022/07/13 08:39:12;;;;;;;;;4.75;4.25;;;;;29.41;28.31;101767.81;6308831;22;45620;-77
2022/07/13 08:41:45;;;;;;;;;3.25;3.25;;;;;29.46;28.59;101769.25;6308811;22;45235;-78
2022/07/13 08:44:18;;;;;;;;;5.25;4.50;;;;;29.57;28.26;101759.50;6281201;22;45287;-78
2022/07/13 08:47:05;;;;;;;;;5.00;3.75;;;;;29.63;28.47;101750.94;6277866;22;45317;-79
2022/07/13 08:49:51;;;;;;;;;;;;;;;;;;;;;
2022/07/13 09:06:38;;;;;;;;;;;;;;;;;;;;;
2022/07/13 09:09:17;;;;;;;;;5.33;4.67;;;;;30.17;26.36;101744.53;6295156;22;45470;-77
2022/07/13 09:11:47;;;;;;;;;2.33;2.33;;;;;30.23;26.24;101749.56;6280520;22;45712;-77
2022/07/13 09:14:37;;;;;;;;;3.00;3.00;;;;;30.30;26.57;101751.72;6308847;22;45276;-77
2022/07/13 09:17:28;;;;;;;;;4.33;4.00;;;;;30.36;26.00;101747.69;6280355;22;45303;-77
2022/07/13 09:20:04;;;;;;;;;3.00;3.00;;;;;30.45;25.81;101744.34;6309551;22;45241;-76
2022/07/13 09:23:05;;;;;;;;;6.00;5.00;;;;;30.53;25.90;101757.38;6309450;22;45166;-80
2022/07/13 09:25:44;;;;;;;;;4.00;4.00;;;;;30.59;25.47;101742.47;6275671;22;48187;-77
2022/07/13 09:28:20;;;;;;;;;4.00;4.00;;;;;30.63;25.27;101738.53;6277204;22;45464;-78
2022/07/13 09:31:31;;;;;;;;;;;;;;;;;;;;;
2022/07/13 09:34:43;;;;;;;;;2.75;2.75;;;;;30.75;25.31;101732.22;6305520;22;71304;-80
2022/07/13 09:37:35;;;;;;;;;;;;;;;;;;;;;
2022/07/13 09:40:12;;;;;;;;;2.00;2.00;;;;;30.94;24.45;101732.63;6305760;22;72808;-79
2022/07/13 09:48:30;;;;;;;;;4.00;3.00;;;;;31.21;23.75;101739.72;6305310;22;45228;-78
2022/07/13 09:51:13;;;;;;;;;3.00;3.00;;;;;31.27;23.44;101744.69;6307248;22;45639;-79
2022/07/13 09:53:50;;;;;;;;;4.33;3.00;;;;;31.37;23.43;101737.59;6277731;22;45324;-78
2022/07/13 09:56:30;;;;;;;;;2.00;2.00;;;;;31.47;23.37;101737.78;6276091;22;45329;-76
2022/07/13 09:59:34;;;;;;;;;3.67;2.67;;;;;31.52;23.21;101731.97;6278212;22;46907;-80
2022/07/13 10:02:27;;;;;;;;;3.00;3.00;;;;;31.63;23.35;101735.59;6153501;23;45312;-78
2022/07/13 10:05:12;;;;;;;;;;;;;;;;;;;;;
2022/07/13 10:07:44;;;;;;;;;3.33;3.00;;;;;31.84;22.91;101735.78;6278702;22;72750;-78
2022/07/13 10:10:23;;;;;;;;;2.00;2.00;;;;;31.96;22.95;101738.56;6279627;22;46956;-78
2022/07/13 10:12:54;;;;;;;;;3.00;3.00;;;;;32.06;22.71;101745.03;6279579;22;45188;-78
2022/07/13 10:15:30;;;;;;;;;2.33;2.33;;;;;32.18;23.01;101737.72;6308521;22;45338;-78
2022/07/13 10:18:12;;;;;;;;;4.00;3.00;;;;;32.29;23.59;101726.84;6280066;22;45628;-78
2022/07/13 10:20:55;;;;;;;;;;;;;;;;;;;;;
2022/07/13 10:23:42;;;;;;;;;3.00;3.00;;;;;32.58;23.35;101719.06;6306913;22;72409;-79
2022/07/13 10:26:35;;;;;;;;;;;;;;;;;;;;;
2022/07/13 10:29:14;;;;;;;;;4.00;4.00;;;;;32.76;22.82;101724.88;6305510;22;72025;-78
2022/07/13 10:32:08;;;;;;;;;4.00;4.00;;;;;32.88;22.95;101720.25;6278611;22;48061;-79
2022/07/13 10:34:56;;;;;;;;;2.25;2.25;;;;;33.08;23.08;101721.38;6211056;22;45373;-78
2022/07/13 10:37:30;;;;;;;;;4.25;4.25;;;;;33.23;22.76;101717.38;6212753;22;45365;-78
2022/07/13 10:40:39;;;;;;;;;4.33;4.33;;;;;33.38;22.32;101713.31;6212582;22;45447;-79
2022/07/13 10:43:18;;;;;;;;;;;;;;;;;;;;;
2022/07/13 10:46:09;;;;;;;;;;;;;;;;;;;;;
2022/07/13 10:51:47;;;;;;;;;4.00;3.00;;;;;33.92;21.91;101719.66;6212160;22;45412;-80
2022/07/13 10:54:15;;;;;;;;;5.00;5.00;;;;;34.06;22.00;101723.09;6212912;22;45461;-79
2022/07/13 10:57:37;;;;;;;;;2.67;2.67;;;;;34.18;21.97;101724.72;6212049;22;45249;-78
2022/07/13 11:00:24;;;;;;;;;4.00;3.25;;;;;34.34;22.38;101714.16;6182024;22;45316;-78
2022/07/13 11:03:58;;;;;;;;;4.00;4.00;;;;;34.52;21.76;101728.03;6243791;22;45756;-78
2022/07/13 11:06:42;;;;;;;;;4.00;4.00;;;;;34.65;21.93;101722.38;6121784;23;47642;-78
2022/07/13 11:09:18;;;;;;;;;3.25;3.25;;;;;34.82;22.00;101720.81;6111057;22;45337;-79
2022/07/13 11:12:01;;;;;;;;;;;;;;;;;;;;;
2022/07/13 11:15:14;;;;;;;;;3.25;3.25;;;;;34.91;21.72;101719.97;6246611;22;71550;-78
2022/07/13 11:18:24;;;;;;;;;3.50;3.00;;;;;35.01;21.47;101711.78;6238633;22;46671;-79
2022/07/13 11:21:30;;;;;;;;;5.00;4.00;;;;;35.25;21.34;101711.41;6247790;22;45247;-78
2022/07/13 11:27:21;;;;;;;;;4.25;3.25;;;;;35.58;21.46;101707.41;6247636;22;45240;-79
2022/07/13 11:30:34;;;;;;;;;;;;;;;;;;;;;
2022/07/13 11:33:38;;;;;;;;;;;;;;;;;;;;;
2022/07/13 11:36:37;;;;;;;;;5.00;5.00;;;;;35.88;21.14;101702.75;6241385;22;67333;-78
2022/07/13 11:39:28;;;;;;;;;3.00;3.00;;;;;36.06;20.80;101697.34;6198111;22;45283;-78
2022/07/13 11:44:56;;;;;;;;;4.00;4.00;;;;;36.31;20.49;101685.75;6246049;22;45203;-78
2022/07/13 11:47:34;;;;;;;;;4.25;4.00;;;;;36.44;20.73;101680.75;6271239;22;45165;-78
2022/07/13 11:50:09;;;;;;;;;4.00;4.00;;;;;36.59;20.65;101685.75;6290156;22;45445;-78
2022/07/13 11:52:53;;;;;;;;;3.50;3.50;;;;;36.65;20.38;101682.44;6275799;22;45704;-78
2022/07/13 11:55:25;;;;;;;;;6.00;6.00;;;;;36.64;20.17;101676.06;6277122;22;45320;-78
2022/07/13 11:57:55;;;;;;;;;4.75;4.75;;;;;36.70;20.21;101665.47;6275477;22;45358;-78
2022/07/13 12:00:23;;;;;;;;;3.00;3.00;;;;;36.77;20.56;101670.19;6276674;22;45262;-78
2022/07/13 12:03:00;;;;;;;;;6.00;4.50;;;;;36.89;20.39;101659.88;6273288;22;46108;-78
2022/07/13 12:05:52;;;;;;;;;4.25;3.25;;;;;37.03;20.05;101672.22;6277258;22;45353;-78
2022/07/13 12:08:23;;;;;;;;;5.00;4.75;;;;;37.08;19.50;101672.63;6276345;22;45327;-78
2022/07/13 12:10:54;;;;;;;;;3.00;3.00;;;;;37.12;20.11;101662.19;6278348;22;45151;-78
2022/07/13 12:13:25;;;;;;;;;4.25;3.00;;;;;37.16;19.87;101660.81;6276556;22;46976;-79
2022/07/13 12:16:05;;;;;;;;;4.00;4.00;;;;;37.09;19.70;101655.97;6271612;22;45314;-79
2022/07/13 12:19:09;;;;;;;;;;;;;;;;;;;;;
2022/07/13 12:21:50;;;;;;;;;;;;;;;;;;;;;
2022/07/13 12:27:29;;;;;;;;;2.25;2.25;;;;;37.35;19.41;101646.94;6269676;22;45487;-78
2022/07/13 12:30:15;;;;;;;;;5.00;5.00;;;;;37.50;19.40;101653.63;6270693;22;45581;-78
2022/07/13 12:33:06;;;;;;;;;3.75;3.75;;;;;37.56;19.13;101652.13;6275719;22;45379;-79
2022/07/13 12:36:20;;;;;;;;;;;;;;;;;;;;;
2022/07/13 12:39:03;;;;;;;;;3.00;3.00;;;;;37.63;18.73;101639.44;6274967;22;72017;-78
2022/07/13 12:41:55;;;;;;;;;4.00;4.00;;;;;37.69;19.31;101632.41;6275959;22;45459;-78
2022/07/13 12:44:42;;;;;;;;;2.25;2.25;;;;;37.74;19.03;101633.69;6273713;22;45466;-78
2022/07/13 12:47:21;;;;;;;;;3.00;2.00;;;;;37.85;19.09;101631.66;6276473;22;45370;-78
2022/07/13 12:50:08;;;;;;;;;;;;;;;;;;;;;
2022/07/13 12:52:55;;;;;;;;;3.25;3.25;;;;;38.24;18.95;101628.47;6306258;22;67987;-78
2022/07/13 12:55:24;;;;;;;;;4.25;4.00;;;;;38.31;18.62;101626.78;6308705;22;45284;-78
2022/07/13 12:58:00;;;;;;;;;4.25;4.25;;;;;38.35;19.03;101620.75;6278818;22;47428;-78
2022/07/13 13:00:37;;;;;;;;;5.25;4.00;;;;;38.46;18.34;101618.75;6309015;22;45239;-78
2022/07/13 13:03:04;;;;;;;;;2.00;2.00;;;;;38.54;18.18;101616.88;6308539;22;45231;-78
2022/07/13 13:05:44;;;;;;;;;3.75;3.00;;;;;38.57;18.27;101611.06;6308813;22;45401;-78
2022/07/13 13:08:18;;;;;;;;;3.50;2.50;;;;;38.67;18.17;101610.91;6305514;22;46753;-78
2022/07/13 13:10:53;;;;;;;;;3.25;2.75;;;;;38.79;17.74;101609.56;6309174;22;45352;-78
2022/07/13 13:13:30;;;;;;;;;3.00;3.00;;;;;38.76;17.97;101612.66;6306133;22;45639;-78
2022/07/13 13:16:27;;;;;;;;;3.50;3.00;;;;;38.61;18.15;101604.19;6280359;22;45974;-82
2022/07/13 13:18:57;;;;;;;;;2.25;2.25;;;;;38.53;17.81;101589.53;6279987;22;46829;-78
2022/07/13 13:21:30;;;;;;;;;3.25;3.00;;;;;38.53;17.73;101587.66;6308788;22;45383;-78
2022/07/13 13:24:08;;;;;;;;;3.75;3.00;;;;;38.59;18.33;101591.63;6307899;22;45281;-78
2022/07/13 13:26:45;;;;;;;;;2.00;2.00;;;;;38.61;17.99;101579.41;6279592;22;45444;-79
2022/07/13 13:32:11;;;;;;;;;3.00;3.00;;;;;38.85;17.97;101585.13;6308103;22;45310;-78
2022/07/13 13:34:57;;;;;;;;;;;;;;;;;;;;;
2022/07/13 13:37:28;;;;;;;;;3.00;3.00;;;;;38.85;17.33;101594.25;6307910;22;72606;-78
2022/07/13 13:40:12;;;;;;;;;;;;;;;;;;;;;
2022/07/13 13:43:06;;;;;;;;;2.75;2.75;;;;;38.74;17.41;101578.06;6308120;22;72914;-79
2022/07/13 13:46:04;;;;;;;;;3.00;3.00;;;;;38.77;17.63;101573.06;6309728;22;45210;-78
2022/07/13 13:48:43;;;;;;;;;3.00;2.75;;;;;38.81;17.62;101568.94;6278733;22;45541;-78
2022/07/13 13:51:37;;;;;;;;;3.00;3.00;;;;;38.85;17.54;101566.69;6307359;22;48097;-78
2022/07/13 13:54:32;;;;;;;;;;;;;;;;;;;;;
2022/07/13 13:57:05;;;;;;;;;2.25;2.25;;;;;38.99;17.42;101559.66;6308608;22;68852;-78
2022/07/13 13:59:58;;;;;;;;;3.00;3.00;;;;;39.04;17.29;101557.25;6281135;22;45295;-78
2022/07/13 14:02:28;;;;;;;;;2.75;2.75;;;;;39.00;17.29;101545.75;6257198;22;46876;-77
2022/07/13 14:05:13;;;;;;;;;3.00;3.00;;;;;38.99;16.95;101549.50;6311028;22;45387;-79
2022/07/13 14:07:41;;;;;;;;;4.00;3.00;;;;;38.99;16.86;101545.91;6287052;22;45408;-78
2022/07/13 14:10:20;;;;;;;;;2.00;2.00;;;;;38.99;16.84;101548.66;6315608;22;45231;-78
2022/07/13 14:13:05;;;;;;;;;2.25;2.25;;;;;39.04;16.65;101546.25;6288234;22;45732;-78
2022/07/13 14:15:41;;;;;;;;;2.50;2.50;;;;;39.10;16.40;101537.28;6292233;22;45176;-78
2022/07/13 14:18:18;;;;;;;;;3.50;3.50;;;;;39.23;16.44;101536.75;6316999;22;45144;-78
2022/07/13 14:20:43;;;;;;;;;2.00;2.00;;;;;39.38;17.11;101534.19;6283435;22;45296;-77
2022/07/13 14:23:21;;;;;;;;;;;;;;;;;;;;;
2022/07/13 14:25:53;;;;;;;;;2.00;2.00;;;;;39.38;16.39;101526.78;6306945;22;72255;-78
2022/07/13 14:28:43;;;;;;;;;3.50;3.50;;;;;39.42;16.06;101527.25;6308761;22;45357;-79
2022/07/13 14:31:09;;;;;;;;;3.00;3.00;;;;;39.42;16.14;101522.59;6280894;22;45954;-78
2022/07/13 14:33:56;;;;;;;;;2.25;2.25;;;;;39.41;16.02;101514.53;6280589;22;47076;-79
2022/07/13 14:36:39;;;;;;;;;1.75;1.75;;;;;39.39;16.12;101511.94;6280907;22;45195;-79
2022/07/13 14:43:38;;;;;;;;;;;;;;;;;;;;;
2022/07/13 15:01:16;;;;;;;;;;;;;;;;;;;;;
2022/07/13 15:11:06;;;;;;;;;;;;;;;;;;;;;
2022/07/13 15:18:13;;;;;;;;;;;;;;;;;;;;;
2022/07/13 15:24:47;;;;;;;;;;;;;;;;;;;;;
2022/07/13 15:35:03;;;;;;;;;;;;;;;;;;;;;
2022/07/13 15:41:48;;;;;;;;;;;;;;;;;;;;;
2022/07/13 15:55:36;;;;;;;;;;;;;;;;;;;;;
2022/07/13 16:23:02;;;;;;;;;4.00;4.00;;;;;39.93;15.58;101409.19;6118901;23;45856;-77
2022/07/13 16:25:40;;;;;;;;;3.25;3.25;;;;;39.91;15.16;101403.88;6119252;23;45408;-76
2022/07/13 16:28:18;;;;;;;;;;;;;;;;;;;;;
2022/07/13 16:30:46;;;;;;;;;4.00;3.00;;;;;40.00;15.35;101403.81;6306017;22;72682;-77
2022/07/13 16:33:45;;;;;;;;;;;;;;;;;;;;;
2022/07/13 16:49:56;;;;;;;;;3.50;3.50;;;;;40.19;15.47;101381.25;6260321;22;45761;-76
2022/07/13 16:52:25;;;;;;;;;5.00;5.00;;;;;40.29;15.96;101390.16;6306022;22;45448;-76
2022/07/13 16:54:55;;;;;;;;;4.00;4.00;;;;;40.39;15.77;101387.13;6305800;22;45600;-77
2022/07/13 16:57:28;;;;;;;;;3.50;3.50;;;;;40.55;15.80;101381.47;6305096;22;46655;-77
2022/07/13 17:00:27;;;;;;;;;3.75;3.50;;;;;40.75;15.55;101387.31;6277891;22;45553;-77
2022/07/13 17:02:54;;;;;;;;;5.00;5.00;;;;;40.89;15.09;101384.78;6277221;22;45708;-77
2022/07/13 17:06:02;;;;;;;;;;;;;;;;;;;;;
2022/07/13 17:08:37;;;;;;;;;4.50;4.50;;;;;42.43;15.53;101385.63;6304157;22;75542;-77
2022/07/13 17:11:14;;;;;;;;;;;;;;;;;;;;;
2022/07/13 17:13:57;;;;;;;;;6.25;5.25;;;;;45.98;13.06;101393.13;6304543;22;68832;-79
2022/07/13 17:16:33;;;;;;;;;4.00;3.50;;;;;47.26;12.18;101389.81;6305792;22;45371;-78
2022/07/13 17:19:05;;;;;;;;;4.75;4.75;;;;;48.18;11.60;101391.56;6305261;22;46905;-79
2022/07/13 17:21:51;;;;;;;;;4.75;4.75;;;;;48.82;11.18;101390.88;6277151;22;45331;-79
2022/07/13 17:24:30;;;;;;;;;6.00;5.00;;;;;48.79;11.65;101400.59;6306271;22;45741;-79
2022/07/13 17:27:01;;;;;;;;;3.75;3.75;;;;;48.07;11.89;101392.38;6305745;22;45388;-80
2022/07/13 17:29:28;;;;;;;;;5.25;5.25;;;;;47.78;11.97;101392.13;6278007;22;46179;-79
2022/07/13 17:31:56;;;;;;;;;4.75;4.25;;;;;47.60;11.51;101384.66;6305057;22;45492;-80
2022/07/13 17:34:26;;;;;;;;;4.25;4.00;;;;;47.66;11.57;101391.22;6278417;22;45414;-79
2022/07/13 17:36:59;;;;;;;;;5.00;5.00;;;;;47.56;11.69;101390.94;6277103;22;45446;-80
2022/07/13 17:39:37;;;;;;;;;4.50;4.00;;;;;46.91;11.76;101385.91;6280446;22;45340;-79
2022/07/13 17:42:19;;;;;;;;;4.50;4.50;;;;;46.03;12.46;101389.66;6280826;22;45347;-79
2022/07/13 17:44:51;;;;;;;;;4.00;4.00;;;;;45.39;12.56;101391.47;6280792;22;45309;-78
2022/07/13 17:47:24;;;;;;;;;3.75;3.75;;;;;44.83;12.97;101392.91;6279909;22;45267;-78
2022/07/13 17:50:28;;;;;;;;;;;;;;;;;;;;;
2022/07/13 17:52:59;;;;;;;;;5.75;5.75;;;;;44.02;13.93;101394.78;6307697;22;72097;-78
2022/07/13 17:55:29;;;;;;;;;4.00;4.00;;;;;43.47;14.50;101388.41;6309287;22;45162;-78
2022/07/13 17:58:26;;;;;;;;;;;;;;;;;;;;;
2022/07/13 18:00:56;;;;;;;;;4.00;4.00;;;;;42.53;14.63;101394.41;6307514;22;74304;-77
2022/07/13 18:03:30;;;;;;;;;1.75;1.75;;;;;42.21;15.57;101398.56;6308839;22;45188;-78
2022/07/13 18:06:00;;;;;;;;;5.00;5.00;;;;;41.83;15.31;101396.03;6280386;22;45323;-78
2022/07/13 18:08:45;;;;;;;;;5.75;5.75;;;;;41.45;15.77;101398.97;6280089;22;45494;-78
2022/07/13 18:11:15;;;;;;;;;5.25;5.25;;;;;41.06;16.02;101400.13;6280141;22;46747;-78
2022/07/13 18:13:50;;;;;;;;;4.75;4.75;;;;;40.74;16.24;101402.19;6280479;22;45241;-79
2022/07/13 18:16:28;;;;;;;;;;;;;;;;;;;;;
2022/07/13 18:19:03;;;;;;;;;6.00;4.75;;;;;40.06;16.76;101403.91;6307075;22;71765;-78
2022/07/13 18:21:32;;;;;;;;;4.75;3.75;;;;;39.72;17.23;101395.16;6310141;22;45383;-77
2022/07/13 18:24:12;;;;;;;;;;;;;;;;;;;;;
2022/07/13 18:26:42;;;;;;;;;3.25;3.25;;;;;39.01;18.12;101412.50;6308329;22;68828;-77
2022/07/13 18:29:13;;;;;;;;;5.00;4.00;;;;;38.73;18.10;101414.72;6280732;22;45224;-79
2022/07/13 18:31:49;;;;;;;;;4.50;4.25;;;;;38.39;18.47;101429.53;6308291;22;45267;-77
2022/07/13 18:34:24;;;;;;;;;3.75;3.75;;;;;38.00;19.54;101431.22;6276532;22;45442;-77
2022/07/13 18:36:54;;;;;;;;;3.00;3.00;;;;;37.61;19.94;101435.38;6305449;22;45479;-78
2022/07/13 18:39:22;;;;;;;;;0.25;0.25;;;;;37.25;20.48;101441.00;6305898;22;45353;-77
2022/07/13 18:41:52;;;;;;;;;2.25;1.25;;;;;36.98;21.09;101450.25;6276843;22;47741;-78
2022/07/13 18:44:18;;;;;;;;;5.00;3.00;;;;;36.73;21.58;101462.06;6306769;22;45312;-77
2022/07/13 18:46:49;;;;;;;;;3.25;3.25;;;;;36.44;21.85;101457.69;6306135;22;45458;-79
2022/07/13 18:49:17;;;;;;;;;4.00;4.00;;;;;36.18;22.02;101465.84;6303725;22;45410;-79
2022/07/13 18:51:45;;;;;;;;;3.25;3.25;;;;;35.97;22.47;101469.69;6305301;22;45499;-78
2022/07/13 18:54:10;;;;;;;;;3.00;3.00;;;;;35.74;22.46;101469.25;6305894;22;45399;-79
2022/07/13 18:56:40;;;;;;;;;4.00;4.00;;;;;35.54;23.10;101484.88;6306415;22;45284;-78
2022/07/13 18:59:16;;;;;;;;;3.00;3.00;;;;;35.34;23.04;101481.38;6277959;22;45759;-79
2022/07/13 19:01:41;;;;;;;;;3.75;3.75;;;;;35.21;23.22;101491.78;6303350;22;46265;-78
2022/07/13 19:04:11;;;;;;;;;4.00;4.00;;;;;35.09;23.34;101490.22;6276903;22;45506;-79
2022/07/13 19:06:45;;;;;;;;;3.50;3.50;;;;;34.94;23.93;101500.75;6306183;22;45402;-79
2022/07/13 19:09:19;;;;;;;;;4.00;3.00;;;;;34.73;23.75;101511.00;6276481;22;45430;-80
2022/07/13 19:11:52;;;;;;;;;3.00;3.00;;;;;34.54;23.74;101504.50;6306985;22;45757;-79
2022/07/13 19:14:24;;;;;;;;;4.50;4.50;;;;;34.40;24.09;101507.63;6277910;22;45680;-79
2022/07/13 19:17:01;;;;;;;;;4.00;4.00;;;;;34.24;24.61;101517.28;6304353;22;45436;-78
2022/07/13 19:19:35;;;;;;;;;3.75;3.75;;;;;34.11;24.57;101529.44;6277670;22;45402;-78
2022/07/13 19:22:00;;;;;;;;;3.50;3.25;;;;;33.98;25.02;101524.22;6303432;22;46324;-78
2022/07/13 19:27:17;;;;;;;;;4.25;3.50;;;;;33.58;24.88;101533.28;6305533;22;45365;-78
2022/07/13 19:29:46;;;;;;;;;5.50;3.75;;;;;33.40;25.47;101538.44;6304185;22;45565;-78
2022/07/13 19:32:16;;;;;;;;;7.00;4.00;;;;;33.30;26.02;101548.44;6306800;22;45464;-78
2022/07/13 19:34:49;;;;;;;;;5.00;4.00;;;;;33.19;25.73;101545.78;6306840;22;45593;-78
2022/07/13 19:37:17;;;;;;;;;3.75;3.75;;;;;33.04;25.97;101551.59;6278986;22;45524;-78
2022/07/13 19:39:52;;;;;;;;;5.00;5.00;;;;;32.98;26.40;101551.22;6278609;22;46311;-78
2022/07/13 19:42:23;;;;;;;;;13.75;11.75;;;;;32.91;26.50;101557.19;6308894;22;45604;-77
2022/07/13 19:44:56;;;;;;;;;14.00;12.00;;;;;32.84;26.22;101555.97;6305152;22;45369;-79
2022/07/13 19:47:24;;;;;;;;;10.75;10.00;;;;;32.80;26.35;101556.38;6306957;22;45395;-78
2022/07/13 19:53:46;;;;;;;;;16.75;15.00;;;;;32.55;26.73;101565.75;6170327;22;45920;-80
2022/07/13 19:56:14;;;;;;;;;17.25;13.75;;;;;32.40;26.96;101567.88;6248167;22;45641;-79
2022/07/13 19:59:12;;;;;;;;;;;;;;;;;;;;;
2022/07/13 20:02:06;;;;;;;;;13.75;12.25;;;;;32.14;27.01;101576.34;6263096;22;73227;-80
2022/07/13 20:04:46;;;;;;;;;7.00;5.75;;;;;32.05;27.16;101583.44;6246757;22;46675;-79
2022/07/13 20:07:16;;;;;;;;;8.25;7.25;;;;;31.95;27.00;101595.19;6248036;22;45357;-79
2022/07/13 20:09:50;;;;;;;;;9.25;7.00;;;;;31.84;27.41;101596.88;6273205;22;45283;-79
2022/07/13 20:12:25;;;;;;;;;5.25;4.75;;;;;31.71;27.29;101592.56;6273090;22;45534;-80
2022/07/13 20:14:55;;;;;;;;;6.00;6.00;;;;;31.63;27.44;101593.16;6247311;22;47706;-80
2022/07/13 20:24:40;;;;;;;;;3.00;3.00;;;;;31.32;28.31;101603.69;6275910;22;45465;-79
2022/07/13 20:27:21;;;;;;;;;3.25;3.25;;;;;31.25;28.14;101601.56;6240839;22;47599;-79
2022/07/13 20:30:19;;;;;;;;;;;;;;;;;;;;;
2022/07/13 20:33:09;;;;;;;;;;;;;;;;;;;;;
2022/07/13 20:39:14;;;;;;;;;3.00;3.00;;;;;30.98;28.18;101617.19;6257406;22;45598;-80
2022/07/13 20:42:03;;;;;;;;;4.50;3.25;;;;;30.90;28.46;101611.47;6212032;22;45591;-79
2022/07/13 20:44:34;;;;;;;;;2.75;2.75;;;;;30.84;28.57;101611.91;6247480;22;45335;-79
2022/07/13 20:47:34;;;;;;;;;2.00;2.00;;;;;30.78;28.22;101615.94;6247819;22;45493;-80
2022/07/13 20:50:39;;;;;;;;;;;;;;;;;;;;;
2022/07/13 20:54:05;;;;;;;;;2.67;2.67;;;;;30.65;28.87;101622.41;6177083;23;72873;-80
2022/07/13 21:00:23;;;;;;;;;2.33;2.00;;;;;30.49;28.72;101622.69;6181208;23;45497;-80
2022/07/13 21:02:57;;;;;;;;;2.33;1.00;;;;;30.47;29.29;101627.34;6133146;23;47929;-79
2022/07/13 21:05:33;;;;;;;;;;;;;;;;;;;;;
2022/07/13 21:08:07;;;;;;;;;3.50;3.50;;;;;30.39;28.99;101619.75;6274292;22;68813;-79
2022/07/13 21:11:38;;;;;;;;;;;;;;;;;;;;;
2022/07/13 21:14:11;;;;;;;;;4.00;3.00;;;;;30.33;29.33;101625.66;6168047;22;74341;-79
2022/07/13 21:16:42;;;;;;;;;3.33;3.33;;;;;30.26;29.30;101627.06;6247301;22;45387;-78
2022/07/13 21:20:07;;;;;;;;;4.00;3.00;;;;;30.19;29.38;101618.47;6272717;22;45454;-79
2022/07/13 21:28:56;;;;;;;;;4.67;4.67;;;;;30.08;29.20;101635.56;6275665;22;45387;-79
2022/07/13 21:35:25;;;;;;;;;;;;;;;;;;;;;